sensor_id;sensor_type;location;lat;lon;timestamp;temperature;humidity
35668;DHT22;22158;59.280;17.806;2023-04-03T05:00:29;-4.00;99.90
35668;DHT22;22158;59.280;17.806;2023-04-03T05:02:55;-4.00;99.90
35668;DHT22;22158;59.280;17.806;2023-04-03T05:05:20;-4.00;99.90
35668;DHT22;22158;59.280;17.806;2023-04-03T05:07:46;-3.90;99.90
35668;DHT22;22158;59.280;17.806;2023-04-03T05:10:12;-3.90;99.90
35668;DHT22;22158;59.280;17.806;2023-04-03T05:12:37;-3.90;99.90
35668;DHT22;22158;59.280;17.806;2023-04-03T05:15:03;-3.80;99.90
35668;DHT22;22158;59.280;17.806;2023-04-03T05:17:28;-3.70;99.90
35668;DHT22;22158;59.280;17.806;2023-04-03T05:19:54;-3.70;99.90
35668;DHT22;22158;59.280;17.806;2023-04-03T05:22:20;-3.70;99.90
35668;DHT22;22158;59.280;17.806;2023-04-03T05:24:45;-3.60;99.90
35668;DHT22;22158;59.280;17.806;2023-04-03T05:27:11;-3.40;99.90
35668;DHT22;22158;59.280;17.806;2023-04-03T05:29:37;-3.30;99.90
35668;DHT22;22158;59.280;17.806;2023-04-03T05:32:02;-3.20;99.90
35668;DHT22;22158;59.280;17.806;2023-04-03T05:34:28;-3.00;99.90
35668;DHT22;22158;59.280;17.806;2023-04-03T05:36:53;-3.00;99.90
35668;DHT22;22158;59.280;17.806;2023-04-03T05:39:19;-2.90;99.90
35668;DHT22;22158;59.280;17.806;2023-04-03T05:41:45;-2.80;99.90
35668;DHT22;22158;59.280;17.806;2023-04-03T05:44:11;-2.80;99.90
35668;DHT22;22158;59.280;17.806;2023-04-03T05:46:36;-2.70;99.90
35668;DHT22;22158;59.280;17.806;2023-04-03T05:49:02;-2.60;99.90
35668;DHT22;22158;59.280;17.806;2023-04-03T05:51:32;-2.60;99.90
35668;DHT22;22158;59.280;17.806;2023-04-03T05:54:21;-2.50;99.90
35668;DHT22;22158;59.280;17.806;2023-04-03T05:56:49;-2.40;99.90
35668;DHT22;22158;59.280;17.806;2023-04-03T05:59:16;-2.30;99.90
35668;DHT22;22158;59.280;17.806;2023-04-03T06:01:41;-2.30;99.90
35668;DHT22;22158;59.280;17.806;2023-04-03T06:04:07;-2.20;99.90
35668;DHT22;22158;59.280;17.806;2023-04-03T06:06:52;-2.20;99.90
35668;DHT22;22158;59.280;17.806;2023-04-03T06:09:20;-2.10;99.90
35668;DHT22;22158;59.280;17.806;2023-04-03T06:11:46;-2.10;99.90
35668;DHT22;22158;59.280;17.806;2023-04-03T06:14:12;-2.00;99.90
35668;DHT22;22158;59.280;17.806;2023-04-03T06:16:38;-1.90;99.90
35668;DHT22;22158;59.280;17.806;2023-04-03T06:19:05;-1.90;99.90
35668;DHT22;22158;59.280;17.806;2023-04-03T06:21:31;-1.80;99.90
35668;DHT22;22158;59.280;17.806;2023-04-03T06:23:57;-1.80;99.90
35668;DHT22;22158;59.280;17.806;2023-04-03T06:26:22;-1.70;99.90
35668;DHT22;22158;59.280;17.806;2023-04-03T06:28:48;-1.60;99.90
35668;DHT22;22158;59.280;17.806;2023-04-03T06:31:14;-1.50;99.90
35668;DHT22;22158;59.280;17.806;2023-04-03T06:33:39;-1.40;99.90
35668;DHT22;22158;59.280;17.806;2023-04-03T06:36:05;-1.40;99.90
35668;DHT22;22158;59.280;17.806;2023-04-03T06:38:33;-1.30;99.90
35668;DHT22;22158;59.280;17.806;2023-04-03T06:40:58;-1.30;99.90
35668;DHT22;22158;59.280;17.806;2023-04-03T06:43:24;-1.20;99.90
35668;DHT22;22158;59.280;17.806;2023-04-03T06:45:50;-1.20;99.90
35668;DHT22;22158;59.280;17.806;2023-04-03T06:48:16;-1.10;99.90
35668;DHT22;22158;59.280;17.806;2023-04-03T06:50:42;-1.00;99.90
35668;DHT22;22158;59.280;17.806;2023-04-03T06:53:08;-1.00;99.90
35668;DHT22;22158;59.280;17.806;2023-04-03T06:55:33;-0.90;99.90
35668;DHT22;22158;59.280;17.806;2023-04-03T06:57:59;-0.80;99.90
35668;DHT22;22158;59.280;17.806;2023-04-03T07:00:25;-0.80;99.90
35668;DHT22;22158;59.280;17.806;2023-04-03T07:02:51;-0.70;99.90
35668;DHT22;22158;59.280;17.806;2023-04-03T07:05:17;-0.70;99.90
35668;DHT22;22158;59.280;17.806;2023-04-03T07:07:43;-0.70;99.90
35668;DHT22;22158;59.280;17.806;2023-04-03T07:10:09;-0.60;99.90
35668;DHT22;22158;59.280;17.806;2023-04-03T07:12:36;-0.60;99.90
35668;DHT22;22158;59.280;17.806;2023-04-03T07:15:04;-0.50;99.90
35668;DHT22;22158;59.280;17.806;2023-04-03T07:17:30;-0.50;99.90
35668;DHT22;22158;59.280;17.806;2023-04-03T07:19:56;-0.40;99.90
35668;DHT22;22158;59.280;17.806;2023-04-03T07:22:22;-0.40;99.90
35668;DHT22;22158;59.280;17.806;2023-04-03T07:24:47;-0.40;99.90
35668;DHT22;22158;59.280;17.806;2023-04-03T07:27:13;-0.40;99.90
35668;DHT22;22158;59.280;17.806;2023-04-03T07:29:39;-0.30;99.90
35668;DHT22;22158;59.280;17.806;2023-04-03T07:32:05;-0.20;99.90
35668;DHT22;22158;59.280;17.806;2023-04-03T07:34:32;-0.20;99.90
35668;DHT22;22158;59.280;17.806;2023-04-03T07:36:58;-0.10;99.90
35668;DHT22;22158;59.280;17.806;2023-04-03T07:39:24;-0.10;99.90
35668;DHT22;22158;59.280;17.806;2023-04-03T07:41:51;0.00;99.90
35668;DHT22;22158;59.280;17.806;2023-04-03T07:44:17;0.00;99.90
35668;DHT22;22158;59.280;17.806;2023-04-03T07:46:43;0.20;99.90
35668;DHT22;22158;59.280;17.806;2023-04-03T07:49:09;0.20;99.90
35668;DHT22;22158;59.280;17.806;2023-04-03T07:51:34;0.20;99.90
35668;DHT22;22158;59.280;17.806;2023-04-03T07:54:00;0.20;99.90
35668;DHT22;22158;59.280;17.806;2023-04-03T07:56:26;0.30;99.90
35668;DHT22;22158;59.280;17.806;2023-04-03T07:58:52;0.40;99.90
35668;DHT22;22158;59.280;17.806;2023-04-03T08:01:17;0.40;99.90
35668;DHT22;22158;59.280;17.806;2023-04-03T08:03:43;0.50;99.90
35668;DHT22;22158;59.280;17.806;2023-04-03T08:06:09;0.60;99.90
35668;DHT22;22158;59.280;17.806;2023-04-03T08:08:36;0.70;99.90
35668;DHT22;22158;59.280;17.806;2023-04-03T08:11:02;0.70;99.90
35668;DHT22;22158;59.280;17.806;2023-04-03T08:13:29;0.80;99.90
35668;DHT22;22158;59.280;17.806;2023-04-03T08:15:56;0.90;99.90
35668;DHT22;22158;59.280;17.806;2023-04-03T08:18:23;1.00;99.90
35668;DHT22;22158;59.280;17.806;2023-04-03T08:20:50;0.90;99.90
35668;DHT22;22158;59.280;17.806;2023-04-03T08:23:17;1.00;99.90
35668;DHT22;22158;59.280;17.806;2023-04-03T08:25:43;1.10;99.90
35668;DHT22;22158;59.280;17.806;2023-04-03T08:28:09;1.10;99.90
35668;DHT22;22158;59.280;17.806;2023-04-03T08:30:35;1.10;99.90
35668;DHT22;22158;59.280;17.806;2023-04-03T08:33:02;1.20;99.90
35668;DHT22;22158;59.280;17.806;2023-04-03T08:35:28;1.10;99.90
35668;DHT22;22158;59.280;17.806;2023-04-03T08:37:53;1.20;99.90
35668;DHT22;22158;59.280;17.806;2023-04-03T08:40:19;1.20;99.90
35668;DHT22;22158;59.280;17.806;2023-04-03T08:42:48;1.30;99.90
35668;DHT22;22158;59.280;17.806;2023-04-03T08:45:18;1.40;99.90
35668;DHT22;22158;59.280;17.806;2023-04-03T08:47:59;1.40;99.90
35668;DHT22;22158;59.280;17.806;2023-04-03T08:50:38;1.40;99.90
35668;DHT22;22158;59.280;17.806;2023-04-03T08:53:10;1.40;99.90
35668;DHT22;22158;59.280;17.806;2023-04-03T08:55:44;1.50;99.90
35668;DHT22;22158;59.280;17.806;2023-04-03T08:58:17;1.50;99.90
35668;DHT22;22158;59.280;17.806;2023-04-03T09:00:45;1.60;99.90
35668;DHT22;22158;59.280;17.806;2023-04-03T09:03:13;1.70;99.90
35668;DHT22;22158;59.280;17.806;2023-04-03T09:06:01;1.70;99.90
35668;DHT22;22158;59.280;17.806;2023-04-03T09:08:31;1.70;99.90
35668;DHT22;22158;59.280;17.806;2023-04-03T09:13:53;1.80;99.90
35668;DHT22;22158;59.280;17.806;2023-04-03T09:19:17;1.70;99.90
35668;DHT22;22158;59.280;17.806;2023-04-03T09:21:44;1.70;99.90
35668;DHT22;22158;59.280;17.806;2023-04-03T09:24:12;1.80;99.50
35668;DHT22;22158;59.280;17.806;2023-04-03T09:26:51;1.70;99.00
35668;DHT22;22158;59.280;17.806;2023-04-03T09:29:20;1.80;99.10
35668;DHT22;22158;59.280;17.806;2023-04-03T09:31:48;1.80;99.90
35668;DHT22;22158;59.280;17.806;2023-04-03T09:34:32;1.90;99.90
35668;DHT22;22158;59.280;17.806;2023-04-03T09:37:01;2.10;99.90
35668;DHT22;22158;59.280;17.806;2023-04-03T09:39:53;2.10;98.50
35668;DHT22;22158;59.280;17.806;2023-04-03T09:42:24;2.20;99.60
35668;DHT22;22158;59.280;17.806;2023-04-03T09:45:01;2.30;98.90
35668;DHT22;22158;59.280;17.806;2023-04-03T09:47:35;2.40;98.60
35668;DHT22;22158;59.280;17.806;2023-04-03T09:52:40;2.40;98.90
35668;DHT22;22158;59.280;17.806;2023-04-03T09:55:21;2.50;98.40
35668;DHT22;22158;59.280;17.806;2023-04-03T09:58:02;2.60;98.50
35668;DHT22;22158;59.280;17.806;2023-04-03T10:00:37;2.60;98.60
35668;DHT22;22158;59.280;17.806;2023-04-03T10:03:08;2.60;98.80
35668;DHT22;22158;59.280;17.806;2023-04-03T10:05:48;2.60;98.00
35668;DHT22;22158;59.280;17.806;2023-04-03T10:10:43;2.80;99.70
35668;DHT22;22158;59.280;17.806;2023-04-03T10:13:19;2.90;98.70
35668;DHT22;22158;59.280;17.806;2023-04-03T10:16:07;3.00;98.80
35668;DHT22;22158;59.280;17.806;2023-04-03T10:18:58;3.10;97.60
35668;DHT22;22158;59.280;17.806;2023-04-03T10:21:36;3.10;96.50
35668;DHT22;22158;59.280;17.806;2023-04-03T10:24:17;3.10;95.60
35668;DHT22;22158;59.280;17.806;2023-04-03T10:33:08;3.40;98.10
35668;DHT22;22158;59.280;17.806;2023-04-03T10:35:39;3.60;98.90
35668;DHT22;22158;59.280;17.806;2023-04-03T10:38:30;3.60;98.70
35668;DHT22;22158;59.280;17.806;2023-04-03T10:43:50;3.60;96.60
35668;DHT22;22158;59.280;17.806;2023-04-03T10:46:22;3.60;98.30
35668;DHT22;22158;59.280;17.806;2023-04-03T10:54:26;3.60;98.40
35668;DHT22;22158;59.280;17.806;2023-04-03T10:57:07;3.60;98.10
35668;DHT22;22158;59.280;17.806;2023-04-03T11:02:39;3.80;97.60
35668;DHT22;22158;59.280;17.806;2023-04-03T11:05:18;3.80;96.90
35668;DHT22;22158;59.280;17.806;2023-04-03T11:07:50;4.00;96.50
35668;DHT22;22158;59.280;17.806;2023-04-03T11:10:47;4.10;95.60
35668;DHT22;22158;59.280;17.806;2023-04-03T11:13:21;4.30;96.10
35668;DHT22;22158;59.280;17.806;2023-04-03T11:15:53;4.30;91.70
35668;DHT22;22158;59.280;17.806;2023-04-03T11:18:27;4.40;93.30
35668;DHT22;22158;59.280;17.806;2023-04-03T11:21:08;4.40;93.60
35668;DHT22;22158;59.280;17.806;2023-04-03T11:23:39;4.40;91.60
35668;DHT22;22158;59.280;17.806;2023-04-03T11:26:13;4.40;92.60
35668;DHT22;22158;59.280;17.806;2023-04-03T11:28:40;4.40;92.80
35668;DHT22;22158;59.280;17.806;2023-04-03T11:31:20;4.40;93.40
35668;DHT22;22158;59.280;17.806;2023-04-03T11:33:58;4.50;92.30
35668;DHT22;22158;59.280;17.806;2023-04-03T11:36:38;4.70;92.20
35668;DHT22;22158;59.280;17.806;2023-04-03T11:39:28;4.90;88.70
35668;DHT22;22158;59.280;17.806;2023-04-03T11:41:54;4.90;89.80
35668;DHT22;22158;59.280;17.806;2023-04-03T11:44:38;4.90;90.20
35668;DHT22;22158;59.280;17.806;2023-04-03T11:47:07;5.00;91.20
35668;DHT22;22158;59.280;17.806;2023-04-03T11:49:59;5.00;86.80
35668;DHT22;22158;59.280;17.806;2023-04-03T12:00:51;5.00;83.40
35668;DHT22;22158;59.280;17.806;2023-04-03T12:05:52;4.90;81.50
35668;DHT22;22158;59.280;17.806;2023-04-03T12:08:26;5.00;84.50
35668;DHT22;22158;59.280;17.806;2023-04-03T12:13:42;4.90;80.70
35668;DHT22;22158;59.280;17.806;2023-04-03T12:16:29;5.10;79.50
35668;DHT22;22158;59.280;17.806;2023-04-03T12:35:05;5.50;78.80
35668;DHT22;22158;59.280;17.806;2023-04-03T12:38:10;5.50;80.90
35668;DHT22;22158;59.280;17.806;2023-04-03T12:51:19;5.90;75.00
35668;DHT22;22158;59.280;17.806;2023-04-03T12:53:47;5.90;75.10
35668;DHT22;22158;59.280;17.806;2023-04-03T12:56:31;5.70;73.80
35668;DHT22;22158;59.280;17.806;2023-04-03T13:01:44;5.70;74.80
35668;DHT22;22158;59.280;17.806;2023-04-03T13:04:18;5.80;74.10
35668;DHT22;22158;59.280;17.806;2023-04-03T13:06:44;5.90;77.10
35668;DHT22;22158;59.280;17.806;2023-04-03T13:09:26;6.20;78.60
35668;DHT22;22158;59.280;17.806;2023-04-03T13:12:14;6.40;77.00
35668;DHT22;22158;59.280;17.806;2023-04-03T13:14:52;6.50;73.70
35668;DHT22;22158;59.280;17.806;2023-04-03T13:17:18;6.50;73.40
35668;DHT22;22158;59.280;17.806;2023-04-03T13:19:45;6.70;74.80
35668;DHT22;22158;59.280;17.806;2023-04-03T13:22:45;6.80;73.00
35668;DHT22;22158;59.280;17.806;2023-04-03T13:25:14;6.60;71.30
35668;DHT22;22158;59.280;17.806;2023-04-03T13:27:40;6.50;72.60
35668;DHT22;22158;59.280;17.806;2023-04-03T13:30:21;6.50;71.60
35668;DHT22;22158;59.280;17.806;2023-04-03T13:32:48;6.70;70.90
35668;DHT22;22158;59.280;17.806;2023-04-03T13:38:00;6.80;72.10
35668;DHT22;22158;59.280;17.806;2023-04-03T13:40:26;6.70;73.00
35668;DHT22;22158;59.280;17.806;2023-04-03T13:43:05;6.70;71.40
35668;DHT22;22158;59.280;17.806;2023-04-03T13:45:33;6.80;72.80
35668;DHT22;22158;59.280;17.806;2023-04-03T13:51:04;6.70;70.40
35668;DHT22;22158;59.280;17.806;2023-04-03T13:53:31;6.70;71.50
35668;DHT22;22158;59.280;17.806;2023-04-03T13:58:30;6.60;72.30
35668;DHT22;22158;59.280;17.806;2023-04-03T14:01:07;6.70;71.60
35668;DHT22;22158;59.280;17.806;2023-04-03T14:06:00;6.90;71.40
35668;DHT22;22158;59.280;17.806;2023-04-03T14:08:26;6.90;70.90
35668;DHT22;22158;59.280;17.806;2023-04-03T14:10:52;7.00;70.20
35668;DHT22;22158;59.280;17.806;2023-04-03T14:13:19;7.00;70.90
35668;DHT22;22158;59.280;17.806;2023-04-03T14:15:46;7.10;72.20
35668;DHT22;22158;59.280;17.806;2023-04-03T14:18:16;7.20;69.10
35668;DHT22;22158;59.280;17.806;2023-04-03T14:20:42;7.30;69.50
35668;DHT22;22158;59.280;17.806;2023-04-03T14:23:08;7.30;68.30
35668;DHT22;22158;59.280;17.806;2023-04-03T14:25:34;7.30;69.60
35668;DHT22;22158;59.280;17.806;2023-04-03T14:28:00;7.70;70.60
35668;DHT22;22158;59.280;17.806;2023-04-03T14:30:30;7.80;70.60
35668;DHT22;22158;59.280;17.806;2023-04-03T14:32:56;7.80;67.70
35668;DHT22;22158;59.280;17.806;2023-04-03T14:35:23;7.60;65.70
35668;DHT22;22158;59.280;17.806;2023-04-03T14:37:49;7.50;65.20
35668;DHT22;22158;59.280;17.806;2023-04-03T14:40:22;7.50;66.10
35668;DHT22;22158;59.280;17.806;2023-04-03T14:42:48;7.50;66.80
35668;DHT22;22158;59.280;17.806;2023-04-03T14:45:15;7.60;69.50
35668;DHT22;22158;59.280;17.806;2023-04-03T14:47:47;7.60;69.50
35668;DHT22;22158;59.280;17.806;2023-04-03T14:50:19;7.90;69.30
35668;DHT22;22158;59.280;17.806;2023-04-03T14:52:47;8.20;67.40
35668;DHT22;22158;59.280;17.806;2023-04-03T14:55:16;8.20;65.80
35668;DHT22;22158;59.280;17.806;2023-04-03T14:57:42;8.10;66.80
35668;DHT22;22158;59.280;17.806;2023-04-03T15:00:13;8.10;68.70
35668;DHT22;22158;59.280;17.806;2023-04-03T15:02:39;8.10;65.30
35668;DHT22;22158;59.280;17.806;2023-04-03T15:05:07;8.00;65.10
35668;DHT22;22158;59.280;17.806;2023-04-03T15:07:39;7.90;64.50
35668;DHT22;22158;59.280;17.806;2023-04-03T15:12:41;8.00;63.60
35668;DHT22;22158;59.280;17.806;2023-04-03T15:15:08;7.90;61.60
35668;DHT22;22158;59.280;17.806;2023-04-03T15:17:33;7.80;61.90
35668;DHT22;22158;59.280;17.806;2023-04-03T15:19:59;7.70;60.30
35668;DHT22;22158;59.280;17.806;2023-04-03T15:22:25;7.80;61.20
35668;DHT22;22158;59.280;17.806;2023-04-03T15:24:51;7.70;61.00
35668;DHT22;22158;59.280;17.806;2023-04-03T15:27:16;7.60;59.80
35668;DHT22;22158;59.280;17.806;2023-04-03T15:29:43;7.70;59.80
35668;DHT22;22158;59.280;17.806;2023-04-03T15:32:09;7.60;60.10
35668;DHT22;22158;59.280;17.806;2023-04-03T15:34:36;7.70;61.40
35668;DHT22;22158;59.280;17.806;2023-04-03T15:37:02;7.70;61.30
35668;DHT22;22158;59.280;17.806;2023-04-03T15:39:28;7.80;58.20
35668;DHT22;22158;59.280;17.806;2023-04-03T15:41:54;7.70;58.10
35668;DHT22;22158;59.280;17.806;2023-04-03T15:44:21;7.50;57.50
35668;DHT22;22158;59.280;17.806;2023-04-03T15:46:47;7.50;58.20
35668;DHT22;22158;59.280;17.806;2023-04-03T15:49:14;7.50;59.00
35668;DHT22;22158;59.280;17.806;2023-04-03T15:51:40;7.60;58.90
35668;DHT22;22158;59.280;17.806;2023-04-03T15:54:06;7.50;57.00
35668;DHT22;22158;59.280;17.806;2023-04-03T15:56:32;7.40;57.30
35668;DHT22;22158;59.280;17.806;2023-04-03T15:58:57;7.20;57.40
35668;DHT22;22158;59.280;17.806;2023-04-03T16:01:23;6.90;56.00
35668;DHT22;22158;59.280;17.806;2023-04-03T16:03:49;6.70;56.50
35668;DHT22;22158;59.280;17.806;2023-04-03T16:06:16;6.50;57.90
35668;DHT22;22158;59.280;17.806;2023-04-03T16:08:42;6.40;58.30
35668;DHT22;22158;59.280;17.806;2023-04-03T16:11:08;6.30;58.00
35668;DHT22;22158;59.280;17.806;2023-04-03T16:13:35;6.10;58.60
35668;DHT22;22158;59.280;17.806;2023-04-03T16:16:01;5.90;59.20
35668;DHT22;22158;59.280;17.806;2023-04-03T16:18:28;5.80;59.10
35668;DHT22;22158;59.280;17.806;2023-04-03T16:20:54;5.70;60.40
35668;DHT22;22158;59.280;17.806;2023-04-03T16:23:20;5.80;61.80
35668;DHT22;22158;59.280;17.806;2023-04-03T16:25:46;5.90;61.80
35668;DHT22;22158;59.280;17.806;2023-04-03T16:28:13;6.00;60.40
35668;DHT22;22158;59.280;17.806;2023-04-03T16:30:40;5.90;61.40
35668;DHT22;22158;59.280;17.806;2023-04-03T16:33:06;6.00;62.00
35668;DHT22;22158;59.280;17.806;2023-04-03T16:35:32;6.00;61.10
35668;DHT22;22158;59.280;17.806;2023-04-03T16:37:57;6.00;61.40
35668;DHT22;22158;59.280;17.806;2023-04-03T16:40:23;5.80;61.80
35668;DHT22;22158;59.280;17.806;2023-04-03T16:42:49;5.70;61.60
35668;DHT22;22158;59.280;17.806;2023-04-03T16:45:15;5.60;63.20
35668;DHT22;22158;59.280;17.806;2023-04-03T16:47:40;5.40;63.70
35668;DHT22;22158;59.280;17.806;2023-04-03T16:50:06;5.30;64.10
35668;DHT22;22158;59.280;17.806;2023-04-03T16:52:32;5.10;65.10
35668;DHT22;22158;59.280;17.806;2023-04-03T16:54:58;5.00;65.30
35668;DHT22;22158;59.280;17.806;2023-04-03T16:57:24;4.90;66.60
35668;DHT22;22158;59.280;17.806;2023-04-03T16:59:50;4.80;66.60
35668;DHT22;22158;59.280;17.806;2023-04-03T17:02:16;4.70;67.70
35668;DHT22;22158;59.280;17.806;2023-04-03T17:04:42;4.50;67.50
35668;DHT22;22158;59.280;17.806;2023-04-03T17:07:08;4.40;67.60
35668;DHT22;22158;59.280;17.806;2023-04-03T17:09:33;4.30;68.40
35668;DHT22;22158;59.280;17.806;2023-04-03T17:12:00;4.30;68.70
35668;DHT22;22158;59.280;17.806;2023-04-03T17:14:25;4.20;68.50
35668;DHT22;22158;59.280;17.806;2023-04-03T17:16:51;4.10;69.10
35668;DHT22;22158;59.280;17.806;2023-04-03T17:19:17;4.00;69.40
35668;DHT22;22158;59.280;17.806;2023-04-03T17:21:43;3.90;69.90
35668;DHT22;22158;59.280;17.806;2023-04-03T17:24:11;3.80;69.50
35668;DHT22;22158;59.280;17.806;2023-04-03T17:26:40;3.70;70.20
35668;DHT22;22158;59.280;17.806;2023-04-03T17:29:06;3.60;70.60
35668;DHT22;22158;59.280;17.806;2023-04-03T17:31:32;3.60;71.10
35668;DHT22;22158;59.280;17.806;2023-04-03T17:33:57;3.50;71.20
35668;DHT22;22158;59.280;17.806;2023-04-03T17:36:32;3.40;71.10
35668;DHT22;22158;59.280;17.806;2023-04-03T17:38:58;3.40;71.30
35668;DHT22;22158;59.280;17.806;2023-04-03T17:41:24;3.30;71.30
35668;DHT22;22158;59.280;17.806;2023-04-03T17:43:50;3.20;71.50
35668;DHT22;22158;59.280;17.806;2023-04-03T17:46:17;3.10;72.00
35668;DHT22;22158;59.280;17.806;2023-04-03T17:51:10;3.00;72.50
35668;DHT22;22158;59.280;17.806;2023-04-03T17:53:36;2.90;72.50
35668;DHT22;22158;59.280;17.806;2023-04-03T17:56:14;2.80;73.50
35668;DHT22;22158;59.280;17.806;2023-04-03T17:58:40;2.70;73.80
35668;DHT22;22158;59.280;17.806;2023-04-03T18:01:15;2.70;74.60
35668;DHT22;22158;59.280;17.806;2023-04-03T18:03:42;2.50;75.90
35668;DHT22;22158;59.280;17.806;2023-04-03T18:06:11;2.50;76.90
35668;DHT22;22158;59.280;17.806;2023-04-03T18:08:41;2.40;78.00
35668;DHT22;22158;59.280;17.806;2023-04-03T18:11:07;2.30;78.90
35668;DHT22;22158;59.280;17.806;2023-04-03T18:13:33;2.20;79.80
35668;DHT22;22158;59.280;17.806;2023-04-03T18:16:03;2.20;80.40
35668;DHT22;22158;59.280;17.806;2023-04-03T18:18:29;2.10;81.70
35668;DHT22;22158;59.280;17.806;2023-04-03T18:20:55;2.00;82.60
35668;DHT22;22158;59.280;17.806;2023-04-03T18:23:20;1.90;84.40
35668;DHT22;22158;59.280;17.806;2023-04-03T18:25:46;1.80;86.10
35668;DHT22;22158;59.280;17.806;2023-04-03T18:28:12;1.70;87.40
35668;DHT22;22158;59.280;17.806;2023-04-03T18:30:38;1.60;89.10
35668;DHT22;22158;59.280;17.806;2023-04-03T18:33:03;1.50;89.90
35668;DHT22;22158;59.280;17.806;2023-04-03T18:35:29;1.40;90.10
35668;DHT22;22158;59.280;17.806;2023-04-03T18:37:54;1.30;90.60
35668;DHT22;22158;59.280;17.806;2023-04-03T18:40:20;1.30;90.80
35668;DHT22;22158;59.280;17.806;2023-04-03T18:42:46;1.20;90.60
35668;DHT22;22158;59.280;17.806;2023-04-03T18:45:12;1.10;90.90
35668;DHT22;22158;59.280;17.806;2023-04-03T18:47:40;1.10;91.40
35668;DHT22;22158;59.280;17.806;2023-04-03T18:50:06;1.00;91.60
35668;DHT22;22158;59.280;17.806;2023-04-03T18:52:32;0.90;91.90
35668;DHT22;22158;59.280;17.806;2023-04-03T18:54:58;0.80;92.20
35668;DHT22;22158;59.280;17.806;2023-04-03T18:57:23;0.70;92.50
35668;DHT22;22158;59.280;17.806;2023-04-03T18:59:51;0.70;92.90
35668;DHT22;22158;59.280;17.806;2023-04-03T19:02:17;0.70;93.00
35668;DHT22;22158;59.280;17.806;2023-04-03T19:04:45;0.60;92.90
35668;DHT22;22158;59.280;17.806;2023-04-03T19:07:11;0.50;93.10
35668;DHT22;22158;59.280;17.806;2023-04-03T19:09:37;0.40;93.70
35668;DHT22;22158;59.280;17.806;2023-04-03T19:12:04;0.40;93.70
35668;DHT22;22158;59.280;17.806;2023-04-03T19:14:30;0.30;93.80
35668;DHT22;22158;59.280;17.806;2023-04-03T19:16:56;0.30;93.90
35668;DHT22;22158;59.280;17.806;2023-04-03T19:19:21;0.30;93.90
35668;DHT22;22158;59.280;17.806;2023-04-03T19:21:47;0.20;94.10
35668;DHT22;22158;59.280;17.806;2023-04-03T19:24:13;0.20;94.10
35668;DHT22;22158;59.280;17.806;2023-04-03T19:26:40;0.20;94.50
35668;DHT22;22158;59.280;17.806;2023-04-03T19:29:06;0.10;94.90
35668;DHT22;22158;59.280;17.806;2023-04-03T19:31:32;0.00;95.30
35668;DHT22;22158;59.280;17.806;2023-04-03T19:33:58;0.00;95.50
35668;DHT22;22158;59.280;17.806;2023-04-03T19:36:24;0.00;95.50
35668;DHT22;22158;59.280;17.806;2023-04-03T19:38:50;-0.10;95.80
35668;DHT22;22158;59.280;17.806;2023-04-03T19:41:19;-0.10;96.00
35668;DHT22;22158;59.280;17.806;2023-04-03T19:43:47;-0.20;96.20
35668;DHT22;22158;59.280;17.806;2023-04-03T19:46:14;-0.20;96.40
35668;DHT22;22158;59.280;17.806;2023-04-03T19:48:43;-0.30;96.20
35668;DHT22;22158;59.280;17.806;2023-04-03T19:51:08;-0.30;96.20
35668;DHT22;22158;59.280;17.806;2023-04-03T19:53:34;-0.40;96.40
35668;DHT22;22158;59.280;17.806;2023-04-03T19:56:00;-0.40;96.40
35668;DHT22;22158;59.280;17.806;2023-04-03T19:58:25;-0.40;96.80
35668;DHT22;22158;59.280;17.806;2023-04-03T20:00:56;-0.50;97.50
35668;DHT22;22158;59.280;17.806;2023-04-03T20:03:22;-0.50;97.70
35668;DHT22;22158;59.280;17.806;2023-04-03T20:05:48;-0.50;97.80
35668;DHT22;22158;59.280;17.806;2023-04-03T20:08:13;-0.60;97.60
35668;DHT22;22158;59.280;17.806;2023-04-03T20:10:39;-0.70;97.30
35668;DHT22;22158;59.280;17.806;2023-04-03T20:13:08;-0.70;97.10
35668;DHT22;22158;59.280;17.806;2023-04-03T20:15:36;-0.80;96.80
35668;DHT22;22158;59.280;17.806;2023-04-03T20:18:15;-0.80;97.00
35668;DHT22;22158;59.280;17.806;2023-04-03T20:20:54;-0.80;97.00
35668;DHT22;22158;59.280;17.806;2023-04-03T20:23:20;-0.90;97.00
35668;DHT22;22158;59.280;17.806;2023-04-03T20:25:47;-0.90;96.80
35668;DHT22;22158;59.280;17.806;2023-04-03T20:28:14;-0.90;96.80
35668;DHT22;22158;59.280;17.806;2023-04-03T20:30:45;-1.00;97.20
35668;DHT22;22158;59.280;17.806;2023-04-03T20:33:12;-1.00;97.60
35668;DHT22;22158;59.280;17.806;2023-04-03T20:35:38;-1.00;97.90
35668;DHT22;22158;59.280;17.806;2023-04-03T20:38:04;-1.00;98.20
35668;DHT22;22158;59.280;17.806;2023-04-03T20:40:32;-1.00;98.40
35668;DHT22;22158;59.280;17.806;2023-04-03T20:42:58;-1.10;98.20
35668;DHT22;22158;59.280;17.806;2023-04-03T20:45:24;-1.20;98.30
35668;DHT22;22158;59.280;17.806;2023-04-03T20:47:50;-1.20;98.70
35668;DHT22;22158;59.280;17.806;2023-04-03T20:50:18;-1.20;99.00
35668;DHT22;22158;59.280;17.806;2023-04-03T20:52:45;-1.30;99.20
35668;DHT22;22158;59.280;17.806;2023-04-03T20:55:12;-1.30;99.20
35668;DHT22;22158;59.280;17.806;2023-04-03T20:57:37;-1.30;98.90
35668;DHT22;22158;59.280;17.806;2023-04-03T21:00:04;-1.40;99.00
35668;DHT22;22158;59.280;17.806;2023-04-03T21:02:33;-1.40;99.00
35668;DHT22;22158;59.280;17.806;2023-04-03T21:04:59;-1.50;99.30
35668;DHT22;22158;59.280;17.806;2023-04-03T21:19:13;-1.50;99.80
35668;DHT22;22158;59.280;17.806;2023-04-03T21:21:41;-1.60;99.80
35668;DHT22;22158;59.280;17.806;2023-04-03T21:24:11;-1.60;99.80
35668;DHT22;22158;59.280;17.806;2023-04-03T21:26:37;-1.60;99.90
35668;DHT22;22158;59.280;17.806;2023-04-03T21:29:05;-1.60;99.90
35668;DHT22;22158;59.280;17.806;2023-04-03T21:34:13;-1.70;99.90
35668;DHT22;22158;59.280;17.806;2023-04-03T21:36:40;-1.80;99.90
35668;DHT22;22158;59.280;17.806;2023-04-03T21:39:06;-1.80;99.90
35668;DHT22;22158;59.280;17.806;2023-04-03T21:41:31;-1.90;99.80
35668;DHT22;22158;59.280;17.806;2023-04-03T21:43:57;-1.90;99.90
35668;DHT22;22158;59.280;17.806;2023-04-03T21:46:23;-1.90;99.90
35668;DHT22;22158;59.280;17.806;2023-04-03T21:48:52;-2.00;99.90
35668;DHT22;22158;59.280;17.806;2023-04-03T21:51:20;-1.90;99.90
35668;DHT22;22158;59.280;17.806;2023-04-03T21:53:50;-2.00;99.90
35668;DHT22;22158;59.280;17.806;2023-04-03T21:56:15;-2.00;99.90
35668;DHT22;22158;59.280;17.806;2023-04-03T21:58:41;-2.00;99.90
35668;DHT22;22158;59.280;17.806;2023-04-03T22:01:14;-2.00;99.90
35668;DHT22;22158;59.280;17.806;2023-04-03T22:03:41;-2.10;99.90
35668;DHT22;22158;59.280;17.806;2023-04-03T22:06:08;-2.10;99.90
35668;DHT22;22158;59.280;17.806;2023-04-03T22:08:34;-2.20;99.90
35668;DHT22;22158;59.280;17.806;2023-04-03T22:11:05;-2.20;99.90
35668;DHT22;22158;59.280;17.806;2023-04-03T22:13:32;-2.20;99.90
35668;DHT22;22158;59.280;17.806;2023-04-03T22:15:58;-2.20;99.90